LFBP/PUF METAR and TAF weather

Enter ICAO airport designator
Station Type Date Time Source
LFBP METAR 2019/10/21 02:30 UTC NOAA

LFBP 210230Z AUTO 15003KT 9999 FEW054 OVC080 10/10 Q1016 TEMPO 3000 BR BKN002


Station Type Date Time Source
LFBP Decoded METAR 2019/10/21 02:30 UTC NOAA

Pau, France (LFBP) 43-23N 000-25W 185M
Oct 20, 2019 - 10:30 PM EDT / 2019.10.21 0230 UTC
Wind: from the SSE (150 degrees) at 3 MPH (3 KT):0
Visibility: greater than 7 mile(s):0
Sky conditions: overcast
Temperature: 50 F (10 C)
Dew Point: 50 F (10 C)
Relative Humidity: 100%
Pressure (altimeter): 30.00 in. Hg (1016 hPa)
ob: LFBP 210230Z AUTO 15003KT 9999 FEW054 OVC080 10/10 Q1016 TEMPO 3000 BR BKN002
cycle: 2

Station Type Date Time Source
LFBP TAF 2019/10/20 18:21 UTC NOAA

TAF LFBP 201700Z 2018/2118 27015KT 9999 BKN040 PROB30
TEMPO 2018/2021 4000 -SHRA BKN014 SCT025TCU
BECMG 2022/2024 VRB02KT SCT050 PROB30
TEMPO 2103/2107 3000 BR BKN002

Example: see airport list